createdAt,value
2023-05-22T00:00:32.973Z,14.42
2023-05-22T00:01:32.957Z,14.40
2023-05-22T00:02:33.085Z,14.40
2023-05-22T00:03:32.976Z,14.42
2023-05-22T00:04:32.937Z,14.40
2023-05-22T00:05:32.992Z,14.47
2023-05-22T00:06:32.895Z,14.58
2023-05-22T00:07:32.885Z,14.70
2023-05-22T00:08:32.893Z,14.77
2023-05-22T00:09:32.886Z,14.83
2023-05-22T00:10:32.864Z,14.91
2023-05-22T00:11:32.846Z,14.95
2023-05-22T00:12:32.868Z,14.98
2023-05-22T00:13:32.820Z,15.01
2023-05-22T00:14:32.833Z,15.06
2023-05-22T00:15:32.790Z,15.09
2023-05-22T00:16:32.846Z,15.10
2023-05-22T00:17:32.802Z,15.11
2023-05-22T00:18:32.769Z,15.11
2023-05-22T00:19:32.795Z,15.10
2023-05-22T00:20:32.772Z,15.11
2023-05-22T00:21:32.762Z,15.09
2023-05-22T00:22:32.734Z,15.07
2023-05-22T00:23:32.723Z,15.06
2023-05-22T00:24:32.716Z,15.03
2023-05-22T00:25:32.703Z,15.02
2023-05-22T00:26:32.695Z,14.98
2023-05-22T00:27:32.671Z,14.96
2023-05-22T00:28:32.688Z,14.91
2023-05-22T00:29:32.652Z,14.86
2023-05-22T00:30:32.656Z,14.80
2023-05-22T00:31:32.656Z,14.78
2023-05-22T00:32:32.643Z,14.72
2023-05-22T00:33:32.616Z,14.65
2023-05-22T00:34:32.643Z,14.62
2023-05-22T00:35:32.592Z,14.58
2023-05-22T00:36:32.610Z,14.55
2023-05-22T00:37:32.615Z,14.54
2023-05-22T00:38:32.698Z,14.50
2023-05-22T00:39:32.578Z,14.45
2023-05-22T00:40:32.619Z,14.45
2023-05-22T00:41:32.539Z,14.42
2023-05-22T00:42:32.535Z,14.40
2023-05-22T00:43:32.520Z,14.37
2023-05-22T00:44:32.508Z,14.35
2023-05-22T00:45:32.482Z,14.32
2023-05-22T00:46:32.552Z,14.28
2023-05-22T00:47:32.520Z,14.24
2023-05-22T00:48:32.469Z,14.21
2023-05-22T00:49:32.525Z,14.18
2023-05-22T00:50:32.444Z,14.20
2023-05-22T00:51:32.431Z,14.17
2023-05-22T00:52:32.439Z,14.14
2023-05-22T00:53:32.466Z,14.10
2023-05-22T00:54:32.413Z,14.07
2023-05-22T00:55:32.389Z,14.06
2023-05-22T00:56:32.385Z,14.04
2023-05-22T00:57:32.388Z,14.02
2023-05-22T00:58:32.386Z,14.03
2023-05-22T00:59:32.340Z,14.02
2023-05-22T01:00:32.348Z,14.02
2023-05-22T01:01:32.361Z,13.99
2023-05-22T01:02:33.048Z,13.99
2023-05-22T01:03:32.455Z,13.97
2023-05-22T01:04:32.298Z,13.97
2023-05-22T01:05:32.298Z,13.96
2023-05-22T01:06:32.353Z,13.95
2023-05-22T01:07:32.265Z,13.95
2023-05-22T01:08:32.258Z,13.96
2023-05-22T01:09:32.249Z,13.92
2023-05-22T01:10:32.232Z,13.89
2023-05-22T01:11:32.234Z,13.89
2023-05-22T01:12:32.202Z,13.88
2023-05-22T01:13:32.210Z,13.85
2023-05-22T01:14:32.255Z,13.84
2023-05-22T01:15:32.185Z,13.81
2023-05-22T01:16:32.236Z,13.81
2023-05-22T01:17:32.212Z,13.79
2023-05-22T01:18:32.138Z,13.77
2023-05-22T01:19:32.473Z,13.75
2023-05-22T01:20:32.113Z,13.77
2023-05-22T01:21:32.119Z,13.77
2023-05-22T01:22:32.106Z,13.73
2023-05-22T01:23:32.104Z,13.73
2023-05-22T01:24:32.098Z,13.75
2023-05-22T01:25:32.120Z,13.87
2023-05-22T01:26:32.055Z,13.97
2023-05-22T01:27:32.048Z,14.07
2023-05-22T01:28:32.032Z,14.10
2023-05-22T01:29:32.044Z,14.10
2023-05-22T01:30:32.010Z,14.15
2023-05-22T01:31:32.033Z,14.21
2023-05-22T01:32:32.096Z,14.21
2023-05-22T01:33:32.095Z,14.24
2023-05-22T01:34:31.962Z,14.24
2023-05-22T01:35:31.972Z,14.24
2023-05-22T01:36:31.957Z,14.22
2023-05-22T01:37:31.949Z,14.20
2023-05-22T01:38:31.925Z,14.15
2023-05-22T01:39:31.942Z,14.17
2023-05-22T01:40:31.919Z,14.20
2023-05-22T01:41:31.911Z,14.22
2023-05-22T01:42:31.883Z,14.22
2023-05-22T01:43:31.909Z,14.24
2023-05-22T01:44:31.888Z,14.24
2023-05-22T01:45:31.963Z,14.27
2023-05-22T01:46:31.851Z,14.27
2023-05-22T01:47:31.915Z,14.25
2023-05-22T01:48:31.829Z,14.27
2023-05-22T01:49:32.783Z,14.27
2023-05-22T01:50:31.803Z,14.24
2023-05-22T01:51:31.809Z,14.18
2023-05-22T01:52:31.797Z,14.10
2023-05-22T01:53:31.774Z,14.02
2023-05-22T01:54:32.092Z,13.96
2023-05-22T01:55:31.757Z,13.87
2023-05-22T01:56:31.749Z,13.77
2023-05-22T01:57:31.742Z,13.66
2023-05-22T01:58:31.726Z,13.59
2023-05-22T01:59:31.729Z,13.51
2023-05-22T02:00:31.697Z,13.48
2023-05-22T02:01:31.747Z,13.42
2023-05-22T02:02:31.814Z,13.39
2023-05-22T02:03:31.753Z,13.36
2023-05-22T02:04:31.699Z,13.32
2023-05-22T02:05:31.652Z,13.28
2023-05-22T02:06:31.629Z,13.26
2023-05-22T02:07:31.637Z,13.22
2023-05-22T02:08:31.615Z,13.17
2023-05-22T02:09:31.608Z,13.14
2023-05-22T02:10:31.617Z,13.08
2023-05-22T02:11:31.605Z,13.05
2023-05-22T02:12:31.570Z,13.01
2023-05-22T02:13:31.573Z,12.96
2023-05-22T02:14:31.567Z,12.96
2023-05-22T02:15:31.576Z,12.92
2023-05-22T02:16:31.529Z,12.87
2023-05-22T02:17:31.541Z,12.87
2023-05-22T02:18:31.550Z,12.83
2023-05-22T02:19:31.577Z,12.82
2023-05-22T02:20:31.476Z,12.79
2023-05-22T02:21:31.482Z,12.74
2023-05-22T02:22:31.457Z,12.72
2023-05-22T02:23:31.458Z,12.71
2023-05-22T02:24:31.432Z,12.70
2023-05-22T02:25:31.446Z,12.71
2023-05-22T02:26:31.421Z,12.70
2023-05-22T02:27:31.421Z,12.68
2023-05-22T02:28:31.390Z,12.68
2023-05-22T02:29:31.387Z,12.67
2023-05-22T02:30:31.371Z,12.64
2023-05-22T02:31:31.405Z,12.60
2023-05-22T02:32:31.405Z,12.60
2023-05-22T02:33:31.345Z,12.60
2023-05-22T02:34:31.330Z,12.57
2023-05-22T02:35:31.331Z,12.59
2023-05-22T02:36:31.310Z,12.56
2023-05-22T02:37:31.338Z,12.56
2023-05-22T02:38:31.290Z,12.53
2023-05-22T02:39:31.288Z,12.50
2023-05-22T02:40:31.279Z,12.52
2023-05-22T02:41:31.275Z,12.52
2023-05-22T02:42:31.252Z,12.52
2023-05-22T02:43:31.251Z,12.52
2023-05-22T02:44:31.223Z,12.52
2023-05-22T02:45:31.219Z,12.47
2023-05-22T02:46:31.218Z,12.46
2023-05-22T02:47:31.307Z,12.45
2023-05-22T02:48:31.185Z,12.42
2023-05-22T02:49:31.171Z,12.37
2023-05-22T02:50:32.003Z,12.32
2023-05-22T02:51:31.165Z,12.28
2023-05-22T02:52:31.141Z,12.27
2023-05-22T02:53:31.127Z,12.27
2023-05-22T02:54:31.108Z,12.27
2023-05-22T02:55:31.122Z,12.27
2023-05-22T02:56:31.080Z,12.28
2023-05-22T02:57:31.100Z,12.27
2023-05-22T02:58:31.077Z,12.28
2023-05-22T02:59:31.883Z,12.27
2023-05-22T03:00:31.048Z,12.28
2023-05-22T03:01:31.071Z,12.23
2023-05-22T03:02:31.103Z,12.21
2023-05-22T03:03:31.113Z,12.21
2023-05-22T03:04:31.003Z,12.19
2023-05-22T03:05:30.996Z,12.20
2023-05-22T03:06:30.986Z,12.17
2023-05-22T03:07:30.976Z,12.19
2023-05-22T03:08:30.966Z,12.17
2023-05-22T03:09:30.960Z,12.17
2023-05-22T03:10:30.941Z,12.16
2023-05-22T03:11:30.942Z,12.14
2023-05-22T03:12:30.936Z,12.14
2023-05-22T03:13:30.924Z,12.13
2023-05-22T03:14:30.891Z,12.10
2023-05-22T03:15:30.896Z,12.10
2023-05-22T03:16:30.929Z,12.12
2023-05-22T03:17:30.891Z,12.09
2023-05-22T03:18:30.864Z,12.04
2023-05-22T03:19:30.894Z,12.01
2023-05-22T03:20:30.873Z,11.99
2023-05-22T03:21:30.831Z,11.95
2023-05-22T03:22:30.930Z,11.94
2023-05-22T03:23:30.804Z,11.94
2023-05-22T03:24:30.795Z,11.95
2023-05-22T03:25:30.790Z,11.94
2023-05-22T03:26:30.773Z,11.94
2023-05-22T03:27:30.769Z,11.94
2023-05-22T03:28:31.726Z,11.95
2023-05-22T03:29:30.740Z,11.95
2023-05-22T03:30:30.734Z,11.94
2023-05-22T03:31:31.531Z,11.90
2023-05-22T03:32:30.744Z,11.88
2023-05-22T03:33:30.762Z,11.85
2023-05-22T03:34:30.679Z,11.85
2023-05-22T03:35:30.692Z,11.80
2023-05-22T03:36:32.454Z,11.76
2023-05-22T03:37:30.655Z,11.76
2023-05-22T03:38:30.652Z,11.75
2023-05-22T03:39:30.643Z,11.75
2023-05-22T03:40:30.625Z,11.78
2023-05-22T03:41:30.621Z,11.78
2023-05-22T03:42:30.597Z,11.75
2023-05-22T03:43:30.590Z,11.76
2023-05-22T03:44:30.588Z,11.75
2023-05-22T03:45:30.605Z,11.73
2023-05-22T03:46:30.594Z,11.72
2023-05-22T03:47:30.597Z,11.72
2023-05-22T03:48:30.533Z,11.67
2023-05-22T03:49:30.541Z,11.67
2023-05-22T03:50:30.518Z,11.65
2023-05-22T03:51:30.503Z,11.64
2023-05-22T03:52:30.514Z,11.67
2023-05-22T03:53:30.484Z,11.67
2023-05-22T03:54:30.472Z,11.69
2023-05-22T03:55:30.473Z,11.70
2023-05-22T03:56:30.452Z,11.72
2023-05-22T03:57:30.441Z,11.78
2023-05-22T03:58:30.423Z,11.79
2023-05-22T03:59:30.422Z,11.80
2023-05-22T04:00:30.404Z,11.80
2023-05-22T04:01:30.410Z,11.83
2023-05-22T04:02:30.503Z,11.80
2023-05-22T04:03:30.450Z,11.80
2023-05-22T04:04:30.370Z,11.80
2023-05-22T04:05:30.683Z,11.79
2023-05-22T04:06:30.331Z,11.75
2023-05-22T04:07:30.333Z,11.76
2023-05-22T04:08:30.321Z,11.76
2023-05-22T04:09:30.341Z,11.75
2023-05-22T04:10:30.299Z,11.76
2023-05-22T04:11:30.312Z,11.80
2023-05-22T04:12:30.522Z,11.79
2023-05-22T04:13:30.692Z,11.83
2023-05-22T04:14:30.540Z,11.83
2023-05-22T04:15:30.250Z,11.85
2023-05-22T04:16:30.296Z,11.90
2023-05-22T04:17:30.360Z,11.91
2023-05-22T04:18:30.204Z,11.95
2023-05-22T04:19:30.440Z,11.96
2023-05-22T04:20:30.182Z,11.95
2023-05-22T04:21:31.000Z,11.95
2023-05-22T04:22:30.172Z,11.96
2023-05-22T04:23:30.168Z,11.98
2023-05-22T04:24:30.155Z,12.01
2023-05-22T04:25:30.164Z,12.02
2023-05-22T04:26:30.171Z,12.04
2023-05-22T04:27:30.132Z,12.05
2023-05-22T04:28:30.107Z,12.09
2023-05-22T04:29:30.098Z,12.14
2023-05-22T04:30:30.102Z,12.23
2023-05-22T04:31:30.127Z,12.27
2023-05-22T04:32:30.113Z,12.35
2023-05-22T04:33:30.062Z,12.42
2023-05-22T04:34:30.293Z,12.47
2023-05-22T04:35:30.046Z,12.50
2023-05-22T04:36:30.018Z,12.52
2023-05-22T04:37:30.022Z,12.56
2023-05-22T04:38:29.996Z,12.59
2023-05-22T04:39:29.993Z,12.64
2023-05-22T04:40:29.985Z,12.67
2023-05-22T04:41:29.978Z,12.71
2023-05-22T04:42:29.951Z,12.72
2023-05-22T04:43:29.950Z,12.74
2023-05-22T04:44:29.937Z,12.75
2023-05-22T04:45:29.934Z,12.77
2023-05-22T04:46:30.203Z,12.83
2023-05-22T04:47:29.932Z,12.86
2023-05-22T04:48:29.891Z,12.86
2023-05-22T04:49:29.886Z,12.90
2023-05-22T04:50:29.872Z,12.93
2023-05-22T04:51:29.887Z,13.00
2023-05-22T04:52:29.846Z,13.05
2023-05-22T04:53:29.854Z,13.07
2023-05-22T04:54:29.823Z,13.11
2023-05-22T04:55:29.824Z,13.15
2023-05-22T04:56:36.210Z,13.19
2023-05-22T04:57:30.801Z,13.28
2023-05-22T04:58:29.783Z,13.32
2023-05-22T04:59:29.786Z,13.41
2023-05-22T05:00:29.767Z,13.45
2023-05-22T05:01:31.031Z,13.51
2023-05-22T05:02:29.759Z,13.55
2023-05-22T05:03:29.780Z,13.63
2023-05-22T05:04:29.749Z,13.73
2023-05-22T05:05:29.712Z,13.87
2023-05-22T05:06:29.694Z,14.02
2023-05-22T05:07:29.701Z,14.10
2023-05-22T05:08:29.685Z,14.18
2023-05-22T05:09:29.681Z,14.27
2023-05-22T05:10:29.663Z,14.29
2023-05-22T05:11:29.671Z,14.36
2023-05-22T05:12:29.621Z,14.40
2023-05-22T05:13:29.637Z,14.46
2023-05-22T05:14:29.659Z,14.52
2023-05-22T05:15:29.655Z,14.55
2023-05-22T05:16:29.652Z,14.61
2023-05-22T05:17:29.630Z,14.65
2023-05-22T05:18:29.585Z,14.70
2023-05-22T05:19:29.641Z,14.75
2023-05-22T05:20:30.378Z,14.78
2023-05-22T05:21:29.832Z,14.83
2023-05-22T05:22:29.751Z,14.86
2023-05-22T05:23:29.521Z,14.89
2023-05-22T05:24:29.547Z,14.95
2023-05-22T05:25:30.313Z,15.03
2023-05-22T05:26:29.503Z,15.09
2023-05-22T05:27:29.480Z,15.11
2023-05-22T05:28:29.496Z,15.16
2023-05-22T05:29:29.465Z,15.21
2023-05-22T05:30:29.491Z,15.28
2023-05-22T05:31:29.467Z,15.32
2023-05-22T05:32:29.704Z,15.38
2023-05-22T05:33:29.436Z,15.47
2023-05-22T05:34:29.416Z,15.51
2023-05-22T05:35:29.404Z,15.56
2023-05-22T05:36:29.389Z,15.65
2023-05-22T05:37:29.370Z,15.71
2023-05-22T05:38:29.363Z,15.78
2023-05-22T05:39:29.344Z,15.86
2023-05-22T05:40:29.367Z,15.93
2023-05-22T05:41:29.324Z,16.01
2023-05-22T05:42:29.335Z,16.04
2023-05-22T05:43:29.315Z,16.04
2023-05-22T05:44:29.311Z,16.05
2023-05-22T05:45:29.287Z,16.09
2023-05-22T05:46:29.321Z,16.11
2023-05-22T05:47:29.296Z,16.17
2023-05-22T05:48:29.265Z,16.21
2023-05-22T05:49:29.247Z,16.25
2023-05-22T05:50:29.243Z,16.27
2023-05-22T05:51:29.226Z,16.28
2023-05-22T05:52:29.274Z,16.34
2023-05-22T05:53:29.219Z,16.38
2023-05-22T05:54:29.213Z,16.41
2023-05-22T05:55:29.185Z,16.43
2023-05-22T05:56:29.181Z,16.45
2023-05-22T05:57:29.164Z,16.50
2023-05-22T05:58:29.162Z,16.52
2023-05-22T05:59:29.145Z,16.60
2023-05-22T06:00:29.146Z,16.64
2023-05-22T06:01:29.120Z,16.68
2023-05-22T06:02:29.173Z,16.75
2023-05-22T06:03:29.190Z,16.81
2023-05-22T06:04:29.102Z,16.85
2023-05-22T06:05:29.125Z,16.86
2023-05-22T06:06:29.086Z,16.91
2023-05-22T06:07:29.058Z,16.97
2023-05-22T06:08:29.072Z,17.00
2023-05-22T06:09:29.046Z,17.01
2023-05-22T06:10:29.027Z,17.01
2023-05-22T06:11:29.025Z,17.04
2023-05-22T06:12:29.013Z,17.11
2023-05-22T06:13:29.006Z,17.11
2023-05-22T06:14:28.998Z,17.08
2023-05-22T06:15:28.966Z,17.14
2023-05-22T06:16:29.024Z,17.14
2023-05-22T06:17:29.412Z,17.21
2023-05-22T06:18:28.946Z,17.26
2023-05-22T06:19:29.036Z,17.34
2023-05-22T06:20:28.930Z,17.41
2023-05-22T06:21:28.906Z,17.43
2023-05-22T06:22:28.915Z,17.46
2023-05-22T06:23:28.890Z,17.51
2023-05-22T06:24:28.884Z,17.59
2023-05-22T06:25:28.871Z,17.64
2023-05-22T06:26:28.900Z,17.71
2023-05-22T06:27:29.190Z,17.78
2023-05-22T06:28:28.884Z,17.82
2023-05-22T06:29:28.871Z,17.89
2023-05-22T06:30:39.573Z,17.90
2023-05-22T06:31:29.813Z,17.87
2023-05-22T06:32:29.088Z,17.93
2023-05-22T06:33:28.944Z,17.99
2023-05-22T06:34:28.850Z,18.03
2023-05-22T06:35:28.767Z,18.10
2023-05-22T06:36:29.581Z,18.18
2023-05-22T06:37:28.762Z,18.26
2023-05-22T06:38:29.246Z,18.30
2023-05-22T06:39:29.819Z,18.25
2023-05-22T06:40:29.039Z,18.26
2023-05-22T06:41:28.699Z,18.29
2023-05-22T06:42:28.724Z,18.30
2023-05-22T06:43:28.685Z,18.30
2023-05-22T06:44:28.680Z,18.36
2023-05-22T06:45:28.658Z,18.41
2023-05-22T06:46:28.729Z,18.44
2023-05-22T06:47:28.656Z,18.45
2023-05-22T06:48:28.806Z,18.47
2023-05-22T06:49:28.631Z,18.47
2023-05-22T06:50:28.641Z,18.52
2023-05-22T06:51:28.608Z,18.58
2023-05-22T06:52:28.591Z,18.58
2023-05-22T06:53:28.582Z,18.60
2023-05-22T06:54:28.623Z,18.65
2023-05-22T06:55:28.552Z,18.57
2023-05-22T06:56:28.558Z,18.58
2023-05-22T06:57:28.529Z,18.63
2023-05-22T06:58:28.540Z,18.66
2023-05-22T06:59:28.521Z,18.75
2023-05-22T07:00:28.593Z,18.80
2023-05-22T07:01:28.531Z,18.85
2023-05-22T07:02:28.519Z,18.90
2023-05-22T07:03:28.472Z,18.95
2023-05-22T07:04:28.469Z,18.98
2023-05-22T07:05:28.485Z,18.99
2023-05-22T07:06:28.451Z,19.02
2023-05-22T07:07:28.425Z,19.07
2023-05-22T07:08:30.450Z,19.16
2023-05-22T07:09:28.407Z,19.19
2023-05-22T07:10:28.484Z,19.13
2023-05-22T07:11:28.388Z,19.18
2023-05-22T07:12:28.383Z,19.25
2023-05-22T07:13:28.365Z,19.32
2023-05-22T07:14:28.386Z,19.39
2023-05-22T07:15:28.343Z,19.41
2023-05-22T07:16:28.353Z,19.50
2023-05-22T07:17:28.360Z,19.48
2023-05-22T07:18:28.385Z,19.56
2023-05-22T07:19:29.222Z,19.63
2023-05-22T07:20:28.447Z,19.66
2023-05-22T07:21:28.287Z,19.69
2023-05-22T07:22:28.290Z,19.77
2023-05-22T07:23:28.254Z,19.81
2023-05-22T07:24:28.276Z,19.91
2023-05-22T07:25:28.234Z,20.01
2023-05-22T07:26:28.239Z,20.03
2023-05-22T07:27:28.214Z,20.02
2023-05-22T07:28:28.212Z,20.05
2023-05-22T07:29:28.189Z,20.05
2023-05-22T07:30:28.190Z,20.08
2023-05-22T07:31:28.225Z,20.24
2023-05-22T07:32:28.201Z,20.36
2023-05-22T07:33:28.157Z,20.50
2023-05-22T07:34:29.007Z,20.57
2023-05-22T07:35:28.127Z,20.66
2023-05-22T07:36:28.134Z,20.74
2023-05-22T07:37:28.109Z,20.85
2023-05-22T07:38:28.102Z,20.95
2023-05-22T07:39:28.093Z,21.04
2023-05-22T07:40:28.191Z,21.14
2023-05-22T07:41:28.080Z,21.19
2023-05-22T07:42:28.084Z,21.24
2023-05-22T07:43:28.042Z,21.32
2023-05-22T07:44:28.058Z,21.44
2023-05-22T07:45:28.018Z,21.52
2023-05-22T07:46:28.095Z,21.59
2023-05-22T07:47:28.020Z,21.71
2023-05-22T07:48:28.001Z,21.75
2023-05-22T07:49:27.973Z,21.77
2023-05-22T07:50:28.099Z,21.88
2023-05-22T07:51:27.956Z,21.92
2023-05-22T07:52:27.950Z,21.91
2023-05-22T07:53:27.941Z,22.02
2023-05-22T07:54:27.939Z,22.03
2023-05-22T07:55:28.241Z,22.02
2023-05-22T07:56:27.940Z,22.03
2023-05-22T07:57:27.903Z,21.99
2023-05-22T07:58:27.898Z,22.00
2023-05-22T07:59:27.893Z,22.00
2023-05-22T08:00:27.892Z,21.98
2023-05-22T08:01:27.863Z,22.00
2023-05-22T08:02:28.025Z,22.03
2023-05-22T08:03:28.022Z,22.05
2023-05-22T08:04:27.965Z,22.18
2023-05-22T08:05:27.810Z,22.27
2023-05-22T08:06:27.809Z,22.40
2023-05-22T08:07:27.783Z,22.52
2023-05-22T08:08:28.879Z,22.60
2023-05-22T08:09:27.768Z,22.61
2023-05-22T08:10:30.033Z,22.68
2023-05-22T08:11:28.750Z,22.68
2023-05-22T08:12:27.761Z,22.70
2023-05-22T08:13:27.714Z,22.72
2023-05-22T08:14:27.731Z,22.64
2023-05-22T08:15:27.704Z,22.55
2023-05-22T08:16:27.716Z,22.68
2023-05-22T08:17:27.699Z,22.76
2023-05-22T08:18:27.672Z,22.85
2023-05-22T08:19:27.713Z,22.92
2023-05-22T08:20:27.749Z,23.02
2023-05-22T08:21:27.632Z,23.09
2023-05-22T08:22:27.636Z,23.10
2023-05-22T08:23:27.621Z,23.19
2023-05-22T08:24:27.614Z,23.31
2023-05-22T08:25:27.611Z,23.40
2023-05-22T08:26:27.868Z,23.42
2023-05-22T08:27:27.589Z,23.48
2023-05-22T08:28:27.583Z,23.35
2023-05-22T08:29:27.551Z,23.31
2023-05-22T08:30:27.558Z,23.39
2023-05-22T08:31:27.560Z,23.51
2023-05-22T08:32:29.258Z,23.54
2023-05-22T08:33:27.527Z,23.32
2023-05-22T08:34:27.554Z,23.31
2023-05-22T08:35:27.499Z,23.42
2023-05-22T08:36:27.518Z,23.54
2023-05-22T08:37:27.473Z,23.61
2023-05-22T08:38:27.473Z,23.72
2023-05-22T08:39:27.448Z,23.83
2023-05-22T08:40:27.449Z,23.76
2023-05-22T08:41:27.438Z,23.76
2023-05-22T08:42:27.437Z,23.53
2023-05-22T08:43:28.237Z,23.43
2023-05-22T08:44:27.405Z,23.39
2023-05-22T08:45:27.381Z,23.51
2023-05-22T08:46:27.397Z,23.66
2023-05-22T08:47:27.387Z,23.75
2023-05-22T08:48:27.374Z,23.68
2023-05-22T08:49:27.347Z,23.69
2023-05-22T08:50:27.334Z,23.58
2023-05-22T08:51:27.324Z,23.70
2023-05-22T08:52:27.327Z,23.60
2023-05-22T08:53:27.310Z,23.48
2023-05-22T08:54:27.296Z,23.63
2023-05-22T08:55:27.285Z,23.65
2023-05-22T08:56:29.440Z,23.42
2023-05-22T08:57:27.271Z,23.31
2023-05-22T08:58:27.260Z,23.36
2023-05-22T08:59:27.241Z,23.43
2023-05-22T09:00:27.236Z,23.53
2023-05-22T09:01:27.304Z,23.78
2023-05-22T09:02:27.259Z,24.00
2023-05-22T09:03:27.362Z,24.16
2023-05-22T09:04:27.202Z,24.27
2023-05-22T09:05:27.186Z,24.24
2023-05-22T09:06:27.175Z,24.13
2023-05-22T09:07:27.163Z,24.18
2023-05-22T09:08:27.178Z,24.18
2023-05-22T09:09:27.153Z,24.31
2023-05-22T09:10:27.138Z,24.40
2023-05-22T09:11:27.123Z,24.46
2023-05-22T09:12:27.125Z,24.46
2023-05-22T09:13:27.130Z,24.57
2023-05-22T09:14:27.097Z,24.76
2023-05-22T09:15:27.089Z,24.90
2023-05-22T09:16:27.112Z,24.98
2023-05-22T09:17:27.082Z,25.03
2023-05-22T09:18:27.073Z,25.10
2023-05-22T09:19:27.070Z,25.23
2023-05-22T09:20:27.036Z,25.32
2023-05-22T09:21:30.302Z,25.40
2023-05-22T09:22:27.019Z,25.46
2023-05-22T09:23:27.001Z,25.13
2023-05-22T09:24:27.007Z,24.80
2023-05-22T09:25:26.984Z,24.71
2023-05-22T09:26:26.974Z,24.73
2023-05-22T09:27:26.965Z,24.84
2023-05-22T09:28:26.972Z,24.73
2023-05-22T09:29:26.939Z,24.52
2023-05-22T09:30:26.932Z,24.39
2023-05-22T09:31:26.941Z,24.37
2023-05-22T09:32:26.931Z,24.30
2023-05-22T09:33:26.919Z,24.20
2023-05-22T09:34:27.497Z,24.25
2023-05-22T09:35:26.892Z,24.49
2023-05-22T09:36:26.889Z,24.69
2023-05-22T09:37:26.864Z,24.85
2023-05-22T09:38:27.650Z,24.77
2023-05-22T09:39:26.838Z,24.93
2023-05-22T09:40:26.843Z,25.08
2023-05-22T09:41:26.831Z,25.15
2023-05-22T09:42:26.803Z,25.13
2023-05-22T09:43:26.813Z,24.83
2023-05-22T09:44:26.924Z,24.76
2023-05-22T09:45:26.782Z,24.68
2023-05-22T09:46:26.901Z,24.77
2023-05-22T09:47:27.602Z,24.84
2023-05-22T09:48:26.773Z,24.93
2023-05-22T09:49:26.749Z,25.03
2023-05-22T09:50:26.753Z,25.14
2023-05-22T09:51:26.853Z,25.06
2023-05-22T09:52:26.702Z,24.80
2023-05-22T09:53:26.752Z,24.80
2023-05-22T09:54:26.687Z,24.99
2023-05-22T09:55:26.698Z,25.17
2023-05-22T09:56:37.957Z,25.35
2023-05-22T09:57:27.659Z,25.50
2023-05-22T09:58:26.639Z,25.60
2023-05-22T09:59:26.680Z,25.65
2023-05-22T10:00:26.922Z,25.77
2023-05-22T10:01:26.682Z,25.65
2023-05-22T10:02:26.650Z,25.61
2023-05-22T10:03:26.597Z,25.36
2023-05-22T10:04:26.626Z,25.33
2023-05-22T10:05:26.583Z,25.46
2023-05-22T10:06:26.558Z,25.52
2023-05-22T10:07:26.550Z,25.46
2023-05-22T10:08:26.551Z,25.46
2023-05-22T10:09:26.538Z,25.32
2023-05-22T10:10:26.519Z,25.00
2023-05-22T10:11:26.502Z,25.02
2023-05-22T10:12:26.496Z,25.17
2023-05-22T10:13:26.537Z,25.39
2023-05-22T10:14:27.814Z,25.60
2023-05-22T10:15:26.467Z,25.76
2023-05-22T10:16:26.509Z,25.85
2023-05-22T10:17:26.495Z,26.01
2023-05-22T10:18:26.488Z,26.02
2023-05-22T10:19:26.460Z,26.25
2023-05-22T10:20:26.419Z,26.43
2023-05-22T10:21:26.419Z,26.54
2023-05-22T10:22:26.395Z,26.52
2023-05-22T10:23:26.411Z,26.47
2023-05-22T10:24:26.369Z,26.48
2023-05-22T10:25:26.359Z,26.54
2023-05-22T10:26:26.560Z,26.44
2023-05-22T10:27:26.355Z,26.09
2023-05-22T10:28:27.131Z,26.06
2023-05-22T10:29:26.326Z,26.13
2023-05-22T10:30:26.299Z,26.26
2023-05-22T10:31:26.306Z,26.39
2023-05-22T10:32:26.406Z,26.51
2023-05-22T10:33:26.313Z,26.54
2023-05-22T10:34:26.259Z,26.28
2023-05-22T10:35:26.260Z,26.25
2023-05-22T10:36:26.236Z,26.30
2023-05-22T10:37:26.241Z,26.44
2023-05-22T10:38:26.258Z,26.52
2023-05-22T10:39:26.228Z,26.52
2023-05-22T10:40:26.981Z,26.66
2023-05-22T10:41:26.202Z,26.57
2023-05-22T10:42:26.180Z,26.63
2023-05-22T10:43:26.184Z,26.73
2023-05-22T10:44:26.159Z,26.88
2023-05-22T10:45:26.178Z,26.89
2023-05-22T10:46:26.619Z,26.89
2023-05-22T10:47:26.167Z,26.77
2023-05-22T10:48:26.122Z,26.67
2023-05-22T10:49:26.118Z,26.39
2023-05-22T10:50:26.105Z,26.39
2023-05-22T10:51:26.279Z,26.50
2023-05-22T10:52:26.079Z,26.75
2023-05-22T10:53:26.105Z,26.76
2023-05-22T10:54:26.058Z,26.85
2023-05-22T10:55:26.060Z,27.07
2023-05-22T10:56:26.063Z,26.88
2023-05-22T10:57:26.032Z,26.88
2023-05-22T10:58:26.027Z,27.00
2023-05-22T10:59:26.165Z,27.10
2023-05-22T11:00:26.813Z,27.13
2023-05-22T11:01:26.036Z,27.24
2023-05-22T11:02:26.088Z,27.27
2023-05-22T11:03:25.995Z,27.40
2023-05-22T11:04:26.780Z,27.37
2023-05-22T11:05:25.954Z,27.36
2023-05-22T11:06:25.937Z,27.44
2023-05-22T11:07:25.929Z,27.49
2023-05-22T11:08:25.931Z,27.55
2023-05-22T11:09:26.190Z,27.62
2023-05-22T11:10:25.903Z,27.44
2023-05-22T11:11:25.894Z,27.51
2023-05-22T11:12:25.906Z,27.54
2023-05-22T11:13:27.510Z,27.25
2023-05-22T11:14:25.900Z,27.14
2023-05-22T11:15:25.849Z,27.18
2023-05-22T11:16:25.882Z,27.03
2023-05-22T11:17:25.930Z,26.88
2023-05-22T11:18:25.811Z,26.88
2023-05-22T11:19:25.844Z,27.07
2023-05-22T11:20:25.861Z,27.31
2023-05-22T11:21:25.846Z,27.40
2023-05-22T11:22:25.783Z,27.50
2023-05-22T11:23:25.770Z,27.67
2023-05-22T11:24:25.775Z,27.67
2023-05-22T11:25:25.753Z,27.81
2023-05-22T11:26:27.825Z,27.90
2023-05-22T11:27:25.726Z,27.65
2023-05-22T11:28:25.708Z,27.54
2023-05-22T11:29:25.711Z,27.34
2023-05-22T11:30:25.689Z,27.21
2023-05-22T11:31:25.753Z,27.21
2023-05-22T11:32:25.664Z,27.29
2023-05-22T11:33:25.685Z,27.43
2023-05-22T11:34:25.666Z,27.46
2023-05-22T11:35:25.764Z,27.39
2023-05-22T11:36:25.634Z,27.17
2023-05-22T11:37:25.643Z,27.12
2023-05-22T11:38:25.604Z,27.07
2023-05-22T11:39:25.610Z,26.97
2023-05-22T11:40:25.780Z,26.81
2023-05-22T11:41:25.589Z,26.70
2023-05-22T11:42:25.572Z,26.77
2023-05-22T11:43:25.572Z,26.97
2023-05-22T11:44:25.548Z,26.77
2023-05-22T11:45:26.360Z,26.77
2023-05-22T11:46:25.587Z,26.63
2023-05-22T11:47:25.564Z,26.82
2023-05-22T11:48:25.505Z,26.87
2023-05-22T11:49:25.513Z,26.95
2023-05-22T11:50:40.183Z,26.94
2023-05-22T11:51:26.560Z,26.82
2023-05-22T11:52:25.468Z,26.99
2023-05-22T11:53:25.466Z,27.09
2023-05-22T11:54:26.015Z,27.10
2023-05-22T11:55:25.456Z,27.03
2023-05-22T11:56:25.416Z,27.06
2023-05-22T11:57:25.421Z,27.12
2023-05-22T11:58:25.510Z,26.88
2023-05-22T11:59:25.402Z,26.80
2023-05-22T12:00:25.405Z,27.06
2023-05-22T12:01:25.390Z,27.32
2023-05-22T12:02:25.499Z,27.54
2023-05-22T12:03:26.074Z,27.40
2023-05-22T12:04:25.367Z,27.54
2023-05-22T12:05:25.349Z,27.75
2023-05-22T12:06:25.467Z,27.99
2023-05-22T12:07:25.314Z,27.94
2023-05-22T12:08:25.292Z,27.94
2023-05-22T12:09:25.292Z,27.85
2023-05-22T12:10:25.292Z,27.97
2023-05-22T12:11:25.275Z,28.04
2023-05-22T12:12:25.271Z,28.15
2023-05-22T12:13:25.279Z,28.44
2023-05-22T12:14:26.246Z,28.49
2023-05-22T12:15:25.233Z,28.70
2023-05-22T12:16:25.321Z,28.67
2023-05-22T12:17:25.303Z,28.56
2023-05-22T12:18:25.194Z,28.37
2023-05-22T12:19:25.252Z,28.24
2023-05-22T12:20:25.168Z,28.41
2023-05-22T12:21:25.180Z,28.43
2023-05-22T12:22:25.154Z,28.59
2023-05-22T12:23:25.152Z,28.78
2023-05-22T12:24:25.145Z,28.85
2023-05-22T12:25:25.131Z,29.06
2023-05-22T12:26:25.952Z,29.15
2023-05-22T12:27:25.116Z,29.06
2023-05-22T12:28:25.092Z,29.06
2023-05-22T12:29:25.108Z,28.90
2023-05-22T12:30:25.881Z,28.92
2023-05-22T12:31:25.084Z,28.70
2023-05-22T12:32:25.306Z,28.76
2023-05-22T12:33:25.064Z,28.93
2023-05-22T12:34:25.036Z,28.95
2023-05-22T12:35:25.851Z,28.96
2023-05-22T12:36:25.014Z,29.04
2023-05-22T12:37:25.079Z,29.12
2023-05-22T12:38:25.014Z,29.30
2023-05-22T12:39:25.818Z,29.33
2023-05-22T12:40:25.807Z,29.11
2023-05-22T12:41:24.978Z,28.81
2023-05-22T12:42:24.970Z,28.39
2023-05-22T12:43:24.957Z,28.18
2023-05-22T12:44:25.279Z,28.30
2023-05-22T12:45:24.928Z,28.56
2023-05-22T12:46:24.983Z,28.74
2023-05-22T12:47:25.057Z,29.05
2023-05-22T12:48:25.183Z,28.96
2023-05-22T12:49:24.930Z,28.76
2023-05-22T12:50:24.883Z,28.61
2023-05-22T12:51:24.873Z,28.56
2023-05-22T12:52:24.878Z,28.67